createdAt,value
2018-12-31T00:01:06.394Z,8.48
2018-12-31T00:03:35.967Z,8.47
2018-12-31T00:06:05.225Z,8.46
2018-12-31T00:08:34.520Z,8.47
2018-12-31T00:11:03.753Z,8.46
2018-12-31T00:13:32.961Z,8.42
2018-12-31T00:16:02.177Z,8.45
2018-12-31T00:18:31.659Z,8.49
2018-12-31T00:21:00.933Z,8.53
2018-12-31T00:23:30.131Z,8.59
2018-12-31T00:25:59.309Z,8.58
2018-12-31T00:28:28.489Z,8.60
2018-12-31T00:30:57.704Z,8.56
2018-12-31T00:33:26.926Z,8.61
2018-12-31T00:35:56.079Z,8.57
2018-12-31T00:38:25.461Z,8.53
2018-12-31T00:40:54.606Z,8.59
2018-12-31T00:43:23.823Z,8.58
2018-12-31T00:45:53.010Z,8.56
2018-12-31T00:48:22.186Z,8.59
2018-12-31T00:50:51.352Z,8.55
2018-12-31T00:53:20.571Z,8.54
2018-12-31T00:55:49.745Z,8.54
2018-12-31T00:58:18.999Z,8.53
2018-12-31T01:00:48.282Z,8.51
2018-12-31T01:03:17.498Z,8.61
2018-12-31T01:05:46.632Z,8.57
2018-12-31T01:08:15.914Z,8.60
2018-12-31T01:10:45.856Z,8.55
2018-12-31T01:13:15.070Z,8.59
2018-12-31T01:15:44.221Z,8.55
2018-12-31T01:18:13.419Z,8.63
2018-12-31T01:20:42.804Z,8.61
2018-12-31T01:23:11.956Z,8.72
2018-12-31T01:25:43.120Z,8.70
2018-12-31T01:28:12.114Z,8.77
2018-12-31T01:30:41.247Z,8.78
2018-12-31T01:33:10.534Z,8.82
2018-12-31T01:35:39.783Z,8.77
2018-12-31T01:38:09.087Z,8.77
2018-12-31T01:40:38.556Z,8.76
2018-12-31T01:43:07.823Z,8.70
2018-12-31T01:45:36.976Z,8.74
2018-12-31T01:48:06.182Z,8.74
2018-12-31T01:50:35.641Z,8.74
2018-12-31T01:53:04.804Z,8.82
2018-12-31T01:55:33.958Z,8.82
2018-12-31T01:58:03.149Z,8.85
2018-12-31T02:00:32.462Z,8.81
2018-12-31T02:03:01.692Z,8.85
2018-12-31T02:05:30.846Z,8.82
2018-12-31T02:08:00.331Z,8.85
2018-12-31T02:10:29.568Z,8.81
2018-12-31T02:12:58.784Z,8.85
2018-12-31T02:15:27.956Z,8.80
2018-12-31T02:17:57.100Z,8.91
2018-12-31T02:20:26.289Z,8.86
2018-12-31T02:22:55.429Z,8.79
2018-12-31T02:25:24.644Z,8.84
2018-12-31T02:27:53.877Z,8.80
2018-12-31T02:30:23.107Z,8.86
2018-12-31T02:32:52.326Z,8.85
2018-12-31T02:35:21.525Z,8.85
2018-12-31T02:37:50.711Z,8.89
2018-12-31T02:40:19.895Z,8.85
2018-12-31T02:42:49.179Z,8.84
2018-12-31T02:45:18.340Z,8.96
2018-12-31T02:47:47.494Z,8.95
2018-12-31T02:50:16.688Z,8.96
2018-12-31T02:52:46.209Z,8.98
2018-12-31T02:55:15.414Z,8.96
2018-12-31T02:57:44.782Z,8.92
2018-12-31T03:00:13.990Z,8.84
2018-12-31T03:02:43.176Z,8.89
2018-12-31T03:05:12.537Z,8.91
2018-12-31T03:07:41.731Z,8.94
2018-12-31T03:10:10.977Z,8.92
2018-12-31T03:12:40.183Z,8.96
2018-12-31T03:15:09.556Z,8.98
2018-12-31T03:17:38.776Z,8.98
2018-12-31T03:20:08.176Z,9.07
2018-12-31T03:22:37.335Z,8.94
2018-12-31T03:25:06.548Z,8.92
2018-12-31T03:27:35.683Z,8.99
2018-12-31T03:30:05.176Z,8.99
2018-12-31T03:32:34.409Z,9.01
2018-12-31T03:35:03.607Z,9.02
2018-12-31T03:37:32.778Z,9.03
2018-12-31T03:40:01.919Z,9.04
2018-12-31T03:42:31.101Z,9.07
2018-12-31T03:45:00.398Z,9.00
2018-12-31T03:47:29.666Z,9.05
2018-12-31T03:49:58.930Z,9.08
2018-12-31T03:52:28.116Z,9.02
2018-12-31T03:54:57.265Z,9.02
2018-12-31T03:57:26.494Z,9.05
2018-12-31T03:59:55.655Z,9.02
2018-12-31T04:02:24.833Z,9.07
2018-12-31T04:04:54.184Z,9.03
2018-12-31T04:07:23.376Z,9.02
2018-12-31T04:09:52.530Z,8.99
2018-12-31T04:12:21.704Z,9.06
2018-12-31T04:14:50.869Z,8.97
2018-12-31T04:17:20.929Z,9.06
2018-12-31T04:19:50.085Z,9.07
2018-12-31T04:22:19.291Z,9.05
2018-12-31T04:24:48.423Z,9.01
2018-12-31T04:27:17.611Z,8.98
2018-12-31T04:29:46.781Z,9.05
2018-12-31T04:32:15.956Z,9.05
2018-12-31T04:34:45.134Z,9.05
2018-12-31T04:37:14.413Z,9.02
2018-12-31T04:39:43.662Z,8.97
2018-12-31T04:42:12.854Z,8.91
2018-12-31T04:44:42.126Z,8.96
2018-12-31T04:47:11.287Z,8.97
2018-12-31T04:49:40.422Z,8.96
2018-12-31T04:52:09.621Z,9.00
2018-12-31T04:54:38.787Z,8.96
2018-12-31T04:57:08.306Z,8.95
2018-12-31T04:59:37.494Z,8.84
2018-12-31T05:02:06.604Z,8.94
2018-12-31T05:04:35.785Z,8.94
2018-12-31T05:07:04.952Z,8.87
2018-12-31T05:09:34.135Z,8.94
2018-12-31T05:12:03.315Z,8.88
2018-12-31T05:14:32.478Z,8.88
2018-12-31T05:17:02.189Z,8.90
2018-12-31T05:19:31.334Z,8.88
2018-12-31T05:22:00.588Z,8.93
2018-12-31T05:24:29.896Z,8.90
2018-12-31T05:26:59.203Z,8.87
2018-12-31T05:29:28.384Z,8.91
2018-12-31T05:31:57.547Z,8.89
2018-12-31T05:34:26.979Z,8.84
2018-12-31T05:36:56.210Z,8.90
2018-12-31T05:39:25.375Z,8.89
2018-12-31T05:41:54.544Z,8.89
2018-12-31T05:44:23.712Z,8.88
2018-12-31T05:46:52.859Z,8.88
2018-12-31T05:49:22.011Z,8.85
2018-12-31T05:51:51.200Z,8.88
2018-12-31T05:54:20.457Z,8.81
2018-12-31T05:56:49.677Z,8.85
2018-12-31T05:59:19.149Z,8.83
2018-12-31T06:01:48.350Z,8.82
2018-12-31T06:04:17.515Z,8.85
2018-12-31T06:06:46.784Z,8.83
2018-12-31T06:09:15.933Z,8.82
2018-12-31T06:11:45.081Z,8.80
2018-12-31T06:14:14.287Z,8.80
2018-12-31T06:16:43.470Z,8.79
2018-12-31T06:19:12.648Z,8.78
2018-12-31T06:21:42.031Z,8.82
2018-12-31T06:24:11.833Z,8.75
2018-12-31T06:26:41.080Z,8.81
2018-12-31T06:29:10.327Z,8.80
2018-12-31T06:31:39.835Z,8.81
2018-12-31T06:34:09.121Z,8.77
2018-12-31T06:36:38.365Z,8.79
2018-12-31T06:39:09.064Z,8.79
2018-12-31T06:41:38.247Z,8.79
2018-12-31T06:44:07.422Z,8.74
2018-12-31T06:46:36.587Z,8.80
2018-12-31T06:49:06.059Z,8.71
2018-12-31T06:51:35.311Z,8.74
2018-12-31T06:54:04.481Z,8.68
2018-12-31T06:56:33.696Z,8.71
2018-12-31T06:59:02.864Z,8.69
2018-12-31T07:01:32.048Z,8.71
2018-12-31T07:04:02.172Z,8.63
2018-12-31T07:06:31.321Z,8.61
2018-12-31T07:09:00.498Z,8.62
2018-12-31T07:11:29.693Z,8.69
2018-12-31T07:13:58.864Z,8.62
2018-12-31T07:16:28.065Z,8.62
2018-12-31T07:18:57.228Z,8.63
2018-12-31T07:21:26.402Z,8.64
2018-12-31T07:23:55.537Z,8.63
2018-12-31T07:26:25.535Z,8.57
2018-12-31T07:28:54.726Z,8.58
2018-12-31T07:31:23.863Z,8.61
2018-12-31T07:33:53.014Z,8.56
2018-12-31T07:36:22.203Z,8.61
2018-12-31T07:38:51.466Z,8.65
2018-12-31T07:41:20.623Z,8.66
2018-12-31T07:43:50.133Z,8.68
2018-12-31T07:46:19.304Z,8.64
2018-12-31T07:48:48.448Z,8.69
2018-12-31T07:51:17.670Z,8.70
2018-12-31T07:53:46.808Z,8.71
2018-12-31T07:56:16.098Z,8.71
2018-12-31T07:58:45.259Z,8.68
2018-12-31T08:01:14.444Z,8.71
2018-12-31T08:03:43.652Z,8.66
2018-12-31T08:06:12.891Z,8.65
2018-12-31T08:08:42.110Z,8.71
2018-12-31T08:11:11.250Z,8.73
2018-12-31T08:13:40.429Z,8.76
2018-12-31T08:16:09.726Z,8.77
2018-12-31T08:18:38.942Z,8.78
2018-12-31T08:21:08.203Z,8.81
2018-12-31T08:23:37.386Z,8.76
2018-12-31T08:26:06.557Z,8.75
2018-12-31T08:28:35.754Z,8.79
2018-12-31T08:31:04.970Z,8.83
2018-12-31T08:33:34.143Z,8.71
2018-12-31T08:36:03.330Z,8.73
2018-12-31T08:38:32.552Z,8.84
2018-12-31T08:41:01.693Z,8.77
2018-12-31T08:43:30.883Z,8.83
2018-12-31T08:46:00.265Z,8.69
2018-12-31T08:48:29.509Z,8.80
2018-12-31T08:50:58.653Z,8.85
2018-12-31T08:53:27.825Z,8.74
2018-12-31T08:55:56.971Z,8.87
2018-12-31T08:58:26.162Z,8.92
2018-12-31T09:00:55.346Z,8.90
2018-12-31T09:03:24.527Z,8.97
2018-12-31T09:05:53.676Z,8.79
2018-12-31T09:08:23.165Z,8.88
2018-12-31T09:10:52.325Z,8.91
2018-12-31T09:13:21.602Z,8.92
2018-12-31T09:15:50.785Z,8.73
2018-12-31T09:18:19.969Z,8.74
2018-12-31T09:20:49.153Z,8.82
2018-12-31T09:23:18.637Z,8.77
2018-12-31T09:25:47.796Z,8.79
2018-12-31T09:28:16.960Z,8.75
2018-12-31T09:30:46.136Z,8.81
2018-12-31T09:33:15.293Z,8.88
2018-12-31T09:35:44.582Z,8.81
2018-12-31T09:38:13.717Z,8.85
2018-12-31T09:40:43.020Z,8.83
2018-12-31T09:43:12.262Z,8.90
2018-12-31T09:45:41.409Z,8.90
2018-12-31T09:48:10.589Z,8.85
2018-12-31T09:50:39.791Z,8.80
2018-12-31T09:53:08.958Z,8.87
2018-12-31T09:55:38.100Z,8.92
2018-12-31T09:58:07.574Z,8.91
2018-12-31T10:00:36.814Z,8.90
2018-12-31T10:03:05.976Z,8.97
2018-12-31T10:05:36.268Z,8.98
2018-12-31T10:08:05.499Z,8.99
2018-12-31T10:10:34.871Z,9.08
2018-12-31T10:13:04.029Z,9.14
2018-12-31T10:15:33.208Z,9.02
2018-12-31T10:18:02.512Z,8.97
2018-12-31T10:20:31.665Z,9.07
2018-12-31T10:23:00.845Z,9.08
2018-12-31T10:25:30.019Z,9.13
2018-12-31T10:27:59.254Z,9.19
2018-12-31T10:30:28.436Z,9.16
2018-12-31T10:32:57.622Z,9.21
2018-12-31T10:35:26.800Z,9.26
2018-12-31T10:37:56.021Z,9.08
2018-12-31T10:40:25.263Z,9.24
2018-12-31T10:42:54.466Z,9.18
2018-12-31T10:45:23.733Z,9.27
2018-12-31T10:47:52.930Z,9.36
2018-12-31T10:50:22.083Z,9.37
2018-12-31T10:52:51.551Z,9.32
2018-12-31T10:55:20.749Z,9.29
2018-12-31T10:57:50.038Z,9.25
2018-12-31T11:00:19.340Z,9.47
2018-12-31T11:02:48.599Z,9.56
2018-12-31T11:05:17.901Z,9.60
2018-12-31T11:07:47.574Z,9.62
2018-12-31T11:10:16.728Z,9.70
2018-12-31T11:12:46.170Z,9.62
2018-12-31T11:15:15.444Z,9.70
2018-12-31T11:17:44.730Z,9.51
2018-12-31T11:20:13.936Z,9.62
2018-12-31T11:22:43.106Z,9.48
2018-12-31T11:25:12.858Z,9.68
2018-12-31T11:27:42.019Z,9.78
2018-12-31T11:30:11.371Z,9.81
2018-12-31T11:32:40.595Z,9.69
2018-12-31T11:35:09.749Z,9.81
2018-12-31T11:37:38.930Z,9.84
2018-12-31T11:40:08.497Z,9.82
2018-12-31T11:42:37.636Z,9.74
2018-12-31T11:45:07.316Z,9.68
2018-12-31T11:47:36.453Z,9.55
2018-12-31T11:50:05.980Z,9.69
2018-12-31T11:52:35.443Z,9.79
2018-12-31T11:55:04.750Z,9.72
2018-12-31T11:57:33.889Z,9.77
2018-12-31T12:00:03.350Z,9.87
2018-12-31T12:02:32.743Z,9.98
2018-12-31T12:05:01.898Z,9.87
2018-12-31T12:07:31.074Z,9.98
2018-12-31T12:10:00.283Z,10.03
2018-12-31T12:12:29.474Z,9.89
2018-12-31T12:14:58.685Z,9.98
2018-12-31T12:17:27.862Z,9.97
2018-12-31T12:19:57.054Z,9.98
2018-12-31T12:22:26.551Z,10.10
2018-12-31T12:24:55.852Z,10.05
2018-12-31T12:27:25.138Z,10.05
2018-12-31T12:29:54.430Z,10.14
2018-12-31T12:32:23.639Z,9.94
2018-12-31T12:34:52.804Z,9.98
2018-12-31T12:37:21.965Z,10.03
2018-12-31T12:39:51.419Z,10.02
2018-12-31T12:42:20.575Z,10.02
2018-12-31T12:44:49.859Z,9.90
2018-12-31T12:47:19.543Z,9.86
2018-12-31T12:49:48.892Z,9.97
2018-12-31T12:52:18.201Z,10.15
2018-12-31T12:54:47.364Z,10.15
2018-12-31T12:57:16.563Z,10.25
2018-12-31T12:59:46.091Z,10.12
2018-12-31T13:02:15.275Z,10.27
2018-12-31T13:04:45.448Z,10.43
2018-12-31T13:07:14.776Z,10.37
2018-12-31T13:09:43.957Z,10.43
2018-12-31T13:12:13.293Z,10.36
2018-12-31T13:14:42.511Z,10.26
2018-12-31T13:17:11.665Z,10.34
2018-12-31T13:19:40.855Z,10.25
2018-12-31T13:22:10.108Z,10.23
2018-12-31T13:24:39.358Z,10.20
2018-12-31T13:27:08.771Z,10.24
2018-12-31T13:29:37.939Z,10.19
2018-12-31T13:32:07.111Z,10.14
2018-12-31T13:34:36.309Z,10.05
2018-12-31T13:37:05.510Z,10.14
2018-12-31T13:39:34.669Z,10.14
2018-12-31T13:42:03.877Z,10.09
2018-12-31T13:44:33.083Z,10.02
2018-12-31T13:47:02.320Z,9.93
2018-12-31T13:49:31.555Z,9.98
2018-12-31T13:52:00.741Z,9.89
2018-12-31T13:54:30.932Z,9.93
2018-12-31T13:57:00.231Z,9.90
2018-12-31T13:59:29.666Z,9.85
2018-12-31T14:01:58.958Z,9.81
2018-12-31T14:04:28.100Z,9.91
2018-12-31T14:06:57.303Z,9.99
2018-12-31T14:09:26.482Z,9.90
2018-12-31T14:11:55.951Z,9.91
2018-12-31T14:14:25.247Z,9.85
2018-12-31T14:16:54.399Z,9.96
2018-12-31T14:19:23.609Z,9.94
2018-12-31T14:21:52.754Z,9.89
2018-12-31T14:24:22.209Z,9.90
2018-12-31T14:26:51.541Z,9.95
2018-12-31T14:29:20.762Z,9.93
2018-12-31T14:31:50.160Z,9.76
2018-12-31T14:34:19.740Z,9.72
2018-12-31T14:36:48.908Z,9.67
2018-12-31T14:39:18.117Z,9.82
2018-12-31T14:41:47.393Z,9.80
2018-12-31T14:44:16.685Z,9.69
2018-12-31T14:46:45.882Z,9.78
2018-12-31T14:49:15.054Z,9.81
2018-12-31T14:51:44.339Z,9.86
2018-12-31T14:54:13.685Z,9.86
2018-12-31T14:56:45.330Z,9.85
2018-12-31T14:59:14.483Z,9.78
2018-12-31T15:01:43.624Z,9.80
2018-12-31T15:04:12.842Z,9.78
2018-12-31T15:06:42.179Z,9.74
2018-12-31T15:09:11.334Z,9.76
2018-12-31T15:11:40.520Z,9.70
2018-12-31T15:14:09.691Z,9.71
2018-12-31T15:16:38.836Z,9.51
2018-12-31T15:19:08.024Z,9.44
2018-12-31T15:21:37.165Z,9.44
2018-12-31T15:24:06.572Z,9.41
2018-12-31T15:26:35.755Z,9.37
2018-12-31T15:29:04.875Z,9.23
2018-12-31T15:31:34.033Z,9.20
2018-12-31T15:34:03.263Z,8.97
2018-12-31T15:36:32.798Z,9.02
2018-12-31T15:39:01.946Z,8.92
2018-12-31T15:41:31.209Z,8.96
2018-12-31T15:44:00.443Z,8.98
2018-12-31T15:46:29.645Z,9.03
2018-12-31T15:48:59.310Z,9.05
2018-12-31T15:51:28.473Z,9.07
2018-12-31T15:53:57.946Z,9.08
2018-12-31T15:56:27.529Z,8.97
2018-12-31T15:58:56.758Z,8.99
2018-12-31T16:01:26.324Z,8.98
2018-12-31T16:03:55.453Z,8.88
2018-12-31T16:06:24.633Z,8.83
2018-12-31T16:08:53.863Z,8.87
2018-12-31T16:11:23.012Z,8.89
2018-12-31T16:13:52.599Z,8.88
2018-12-31T16:16:21.782Z,8.90
2018-12-31T16:18:50.940Z,8.90
2018-12-31T16:21:20.189Z,8.93
2018-12-31T16:23:49.458Z,8.94
2018-12-31T16:26:18.996Z,8.91
2018-12-31T16:28:48.170Z,8.94
2018-12-31T16:31:17.374Z,8.92
2018-12-31T16:33:46.584Z,8.90
2018-12-31T16:36:15.815Z,8.91
2018-12-31T16:38:45.241Z,8.92
2018-12-31T16:41:14.444Z,8.88
2018-12-31T16:43:43.607Z,8.84
2018-12-31T16:46:13.264Z,8.82
2018-12-31T16:48:42.652Z,8.84
2018-12-31T16:51:12.095Z,8.83
2018-12-31T16:53:41.233Z,8.89
2018-12-31T16:56:10.647Z,8.81
2018-12-31T16:58:39.830Z,8.85
2018-12-31T17:01:09.138Z,8.91
2018-12-31T17:03:38.428Z,8.94
2018-12-31T17:06:07.733Z,8.98
2018-12-31T17:08:36.917Z,8.93
2018-12-31T17:11:06.194Z,8.98
2018-12-31T17:13:35.362Z,8.98
2018-12-31T17:16:04.805Z,8.99
2018-12-31T17:18:33.999Z,8.98
2018-12-31T17:24:02.247Z,8.96
2018-12-31T17:26:31.435Z,8.91
2018-12-31T17:29:00.708Z,9.03
2018-12-31T17:31:29.907Z,9.07
2018-12-31T17:33:59.162Z,9.07
2018-12-31T17:36:28.558Z,9.03
2018-12-31T17:38:57.812Z,9.11
2018-12-31T17:41:26.996Z,9.09
2018-12-31T17:43:56.189Z,9.05
2018-12-31T17:46:25.488Z,9.05
2018-12-31T17:48:54.813Z,9.08
2018-12-31T17:51:24.138Z,9.03
2018-12-31T17:53:53.295Z,9.05
2018-12-31T17:56:23.699Z,9.02
2018-12-31T17:58:53.134Z,8.95
2018-12-31T18:01:22.567Z,8.92
2018-12-31T18:03:51.776Z,8.85
2018-12-31T18:06:21.029Z,8.83
2018-12-31T18:08:50.368Z,8.79
2018-12-31T18:11:19.544Z,8.78
2018-12-31T18:13:48.711Z,8.72
2018-12-31T18:16:17.874Z,8.61
2018-12-31T18:18:47.122Z,8.63
2018-12-31T18:21:16.407Z,8.65
2018-12-31T18:23:45.579Z,8.57
2018-12-31T18:26:14.725Z,8.62
2018-12-31T18:28:43.905Z,8.53
2018-12-31T18:31:13.196Z,8.49
2018-12-31T18:33:42.376Z,8.56
2018-12-31T18:36:11.615Z,8.57
2018-12-31T18:38:40.854Z,8.57
2018-12-31T18:41:10.173Z,8.60
2018-12-31T18:43:39.357Z,8.61
2018-12-31T18:46:08.540Z,8.56
2018-12-31T18:48:37.991Z,8.62
2018-12-31T18:51:07.143Z,8.61
2018-12-31T18:53:36.352Z,8.55
2018-12-31T18:56:05.491Z,8.64
2018-12-31T18:58:34.652Z,8.63
2018-12-31T19:01:03.844Z,8.68
2018-12-31T19:03:33.091Z,8.65
2018-12-31T19:06:02.247Z,8.61
2018-12-31T19:08:33.214Z,8.72
2018-12-31T19:11:02.487Z,8.77
2018-12-31T19:13:31.663Z,8.79
2018-12-31T19:16:02.487Z,8.76
2018-12-31T19:18:31.623Z,8.78
2018-12-31T19:21:00.830Z,8.79
2018-12-31T19:23:29.990Z,8.79
2018-12-31T19:25:59.139Z,8.78
2018-12-31T19:28:28.320Z,8.75
2018-12-31T19:30:57.466Z,8.74
2018-12-31T19:33:26.643Z,8.76
2018-12-31T19:35:55.855Z,8.77
2018-12-31T19:38:25.094Z,8.77
2018-12-31T19:40:54.241Z,8.72
2018-12-31T19:43:23.753Z,8.77
2018-12-31T19:45:53.007Z,8.72
2018-12-31T19:48:22.187Z,8.79
2018-12-31T19:50:51.378Z,8.76
2018-12-31T19:53:20.896Z,8.79
2018-12-31T19:55:50.073Z,8.74
2018-12-31T19:58:19.244Z,8.77
2018-12-31T20:00:48.432Z,8.75
2018-12-31T20:03:17.637Z,8.76
2018-12-31T20:05:46.967Z,8.76
2018-12-31T20:08:16.153Z,8.74
2018-12-31T20:10:45.337Z,8.66
2018-12-31T20:13:14.491Z,8.73
2018-12-31T20:15:48.545Z,8.77
2018-12-31T20:18:14.595Z,8.78
2018-12-31T20:20:43.741Z,8.73
2018-12-31T20:23:12.929Z,8.74
2018-12-31T20:25:42.096Z,8.75
2018-12-31T20:28:11.271Z,8.63
2018-12-31T20:30:41.022Z,8.68
2018-12-31T20:33:10.184Z,8.66
2018-12-31T20:35:39.370Z,8.69
2018-12-31T20:38:08.562Z,8.68
2018-12-31T20:40:37.720Z,8.67
2018-12-31T20:43:06.923Z,8.67
2018-12-31T20:45:36.071Z,8.66
2018-12-31T20:48:05.256Z,8.65
2018-12-31T20:50:34.497Z,8.56
2018-12-31T20:53:03.644Z,8.68
2018-12-31T20:55:32.820Z,8.56
2018-12-31T20:58:02.804Z,8.60
2018-12-31T21:00:31.983Z,8.57
2018-12-31T21:03:01.287Z,8.55
2018-12-31T21:05:30.503Z,8.57
2018-12-31T21:07:59.666Z,8.63
2018-12-31T21:10:29.216Z,8.58
2018-12-31T21:12:58.418Z,8.54
2018-12-31T21:15:27.602Z,8.48
2018-12-31T21:17:56.808Z,8.52
2018-12-31T21:20:25.970Z,8.43
2018-12-31T21:22:55.413Z,8.33
2018-12-31T21:25:24.566Z,8.34
2018-12-31T21:27:53.818Z,8.31
2018-12-31T21:30:23.005Z,8.27
2018-12-31T21:32:52.177Z,8.23
2018-12-31T21:35:21.367Z,8.22
2018-12-31T21:37:50.528Z,8.21
2018-12-31T21:40:19.987Z,8.19
2018-12-31T21:42:49.115Z,8.19
2018-12-31T21:45:18.263Z,8.13
2018-12-31T21:47:47.435Z,8.07
2018-12-31T21:50:16.582Z,8.15
2018-12-31T21:52:45.782Z,8.14
2018-12-31T21:55:15.020Z,8.13
2018-12-31T21:57:44.154Z,8.13
2018-12-31T22:00:13.469Z,8.13
2018-12-31T22:02:42.855Z,8.12
2018-12-31T22:05:12.380Z,8.11
2018-12-31T22:07:41.506Z,8.11
2018-12-31T22:10:10.703Z,8.10
2018-12-31T22:12:39.914Z,8.07
2018-12-31T22:15:10.706Z,8.06
2018-12-31T22:17:39.847Z,8.03
2018-12-31T22:20:10.433Z,7.97
2018-12-31T22:22:39.657Z,7.91
2018-12-31T22:25:08.940Z,7.88
2018-12-31T22:27:38.205Z,7.87
2018-12-31T22:30:09.084Z,7.87
2018-12-31T22:32:38.748Z,7.85
2018-12-31T22:35:08.109Z,7.86
2018-12-31T22:37:37.277Z,7.84
2018-12-31T22:40:06.501Z,7.82
2018-12-31T22:42:35.686Z,7.80
2018-12-31T22:45:05.061Z,7.82
2018-12-31T22:47:34.216Z,7.80
2018-12-31T22:50:03.418Z,7.86
2018-12-31T22:52:32.600Z,7.84
2018-12-31T22:55:02.166Z,7.87
2018-12-31T22:57:31.385Z,7.86
2018-12-31T23:00:00.530Z,7.88
2018-12-31T23:02:29.702Z,7.83
2018-12-31T23:04:58.886Z,7.73
2018-12-31T23:07:28.051Z,7.79
2018-12-31T23:09:57.246Z,7.80
2018-12-31T23:12:26.489Z,7.80
2018-12-31T23:14:56.568Z,7.79
2018-12-31T23:17:26.687Z,7.80
2018-12-31T23:19:55.859Z,7.80
2018-12-31T23:22:25.922Z,7.77
2018-12-31T23:24:55.098Z,7.80
2018-12-31T23:27:24.259Z,7.78
2018-12-31T23:29:53.429Z,7.76
2018-12-31T23:32:22.723Z,7.72
2018-12-31T23:34:51.912Z,7.77
2018-12-31T23:37:21.221Z,7.72
2018-12-31T23:39:50.412Z,7.73
2018-12-31T23:42:19.554Z,7.73
2018-12-31T23:44:52.950Z,7.73
2018-12-31T23:47:19.619Z,7.76
2018-12-31T23:49:48.823Z,7.76
2018-12-31T23:52:17.971Z,7.77
2018-12-31T23:54:47.137Z,7.76
2018-12-31T23:57:16.333Z,7.79
2018-12-31T23:59:45.647Z,7.80
